sensor_id;sensor_type;location;lat;lon;timestamp;temperature;humidity
27164;DHT22;14685;50.618;7.024;2024-03-08T00:00:11;8.10;99.90
27164;DHT22;14685;50.618;7.024;2024-03-08T00:02:43;8.00;99.90
27164;DHT22;14685;50.618;7.024;2024-03-08T00:05:10;8.00;99.90
27164;DHT22;14685;50.618;7.024;2024-03-08T00:07:39;8.00;99.90
27164;DHT22;14685;50.618;7.024;2024-03-08T00:10:08;8.00;99.90
27164;DHT22;14685;50.618;7.024;2024-03-08T00:12:41;7.90;99.90
27164;DHT22;14685;50.618;7.024;2024-03-08T00:15:13;7.80;99.90
27164;DHT22;14685;50.618;7.024;2024-03-08T00:17:43;7.90;99.90
27164;DHT22;14685;50.618;7.024;2024-03-08T00:20:15;7.90;99.90
27164;DHT22;14685;50.618;7.024;2024-03-08T00:22:42;7.80;99.90
27164;DHT22;14685;50.618;7.024;2024-03-08T00:25:09;7.80;99.90
27164;DHT22;14685;50.618;7.024;2024-03-08T00:27:37;7.80;99.90
27164;DHT22;14685;50.618;7.024;2024-03-08T00:30:05;7.80;99.90
27164;DHT22;14685;50.618;7.024;2024-03-08T00:32:33;7.70;99.90
27164;DHT22;14685;50.618;7.024;2024-03-08T00:35:01;7.70;99.90
27164;DHT22;14685;50.618;7.024;2024-03-08T00:37:28;7.70;99.90
27164;DHT22;14685;50.618;7.024;2024-03-08T00:39:55;7.70;99.90
27164;DHT22;14685;50.618;7.024;2024-03-08T00:42:22;7.70;99.90
27164;DHT22;14685;50.618;7.024;2024-03-08T00:44:49;7.70;99.90
27164;DHT22;14685;50.618;7.024;2024-03-08T00:47:18;7.70;99.90
27164;DHT22;14685;50.618;7.024;2024-03-08T00:49:46;7.60;99.90
27164;DHT22;14685;50.618;7.024;2024-03-08T00:52:13;7.60;99.90
27164;DHT22;14685;50.618;7.024;2024-03-08T00:54:41;7.50;99.90
27164;DHT22;14685;50.618;7.024;2024-03-08T00:57:11;7.50;99.90
27164;DHT22;14685;50.618;7.024;2024-03-08T00:59:39;7.40;99.90
27164;DHT22;14685;50.618;7.024;2024-03-08T01:02:07;7.50;99.90
27164;DHT22;14685;50.618;7.024;2024-03-08T01:04:35;7.40;99.90
27164;DHT22;14685;50.618;7.024;2024-03-08T01:07:02;7.50;99.90
27164;DHT22;14685;50.618;7.024;2024-03-08T01:09:29;7.40;99.90
27164;DHT22;14685;50.618;7.024;2024-03-08T01:11:56;7.40;99.90
27164;DHT22;14685;50.618;7.024;2024-03-08T01:14:24;7.40;99.90
27164;DHT22;14685;50.618;7.024;2024-03-08T01:16:56;7.40;99.90
27164;DHT22;14685;50.618;7.024;2024-03-08T01:19:23;7.40;99.90
27164;DHT22;14685;50.618;7.024;2024-03-08T01:21:51;7.40;99.90
27164;DHT22;14685;50.618;7.024;2024-03-08T01:24:19;7.40;99.90
27164;DHT22;14685;50.618;7.024;2024-03-08T01:26:46;7.30;99.90
27164;DHT22;14685;50.618;7.024;2024-03-08T01:29:14;7.30;99.90
27164;DHT22;14685;50.618;7.024;2024-03-08T01:31:41;7.30;99.90
27164;DHT22;14685;50.618;7.024;2024-03-08T01:34:08;7.30;99.90
27164;DHT22;14685;50.618;7.024;2024-03-08T01:36:35;7.30;99.90
27164;DHT22;14685;50.618;7.024;2024-03-08T01:39:04;7.40;99.90
27164;DHT22;14685;50.618;7.024;2024-03-08T01:41:35;7.40;99.90
27164;DHT22;14685;50.618;7.024;2024-03-08T01:44:03;7.40;99.90
27164;DHT22;14685;50.618;7.024;2024-03-08T01:46:30;7.30;99.90
27164;DHT22;14685;50.618;7.024;2024-03-08T01:48:58;7.30;99.90
27164;DHT22;14685;50.618;7.024;2024-03-08T01:51:30;7.30;99.90
27164;DHT22;14685;50.618;7.024;2024-03-08T01:53:58;7.20;99.90
27164;DHT22;14685;50.618;7.024;2024-03-08T01:56:26;7.10;99.90
27164;DHT22;14685;50.618;7.024;2024-03-08T01:58:54;7.20;99.90
27164;DHT22;14685;50.618;7.024;2024-03-08T02:01:23;7.20;99.90
27164;DHT22;14685;50.618;7.024;2024-03-08T02:03:53;7.20;99.90
27164;DHT22;14685;50.618;7.024;2024-03-08T02:06:20;7.20;99.90
27164;DHT22;14685;50.618;7.024;2024-03-08T02:08:48;7.20;99.90
27164;DHT22;14685;50.618;7.024;2024-03-08T02:11:15;7.20;99.90
27164;DHT22;14685;50.618;7.024;2024-03-08T02:13:42;7.20;99.90
27164;DHT22;14685;50.618;7.024;2024-03-08T02:16:12;7.20;99.90
27164;DHT22;14685;50.618;7.024;2024-03-08T02:18:40;7.20;99.90
27164;DHT22;14685;50.618;7.024;2024-03-08T02:21:08;7.20;99.90
27164;DHT22;14685;50.618;7.024;2024-03-08T02:23:37;7.30;99.90
27164;DHT22;14685;50.618;7.024;2024-03-08T02:26:04;7.20;99.90
27164;DHT22;14685;50.618;7.024;2024-03-08T02:28:37;7.20;99.90
27164;DHT22;14685;50.618;7.024;2024-03-08T02:31:04;7.10;99.90
27164;DHT22;14685;50.618;7.024;2024-03-08T02:33:34;7.20;99.90
27164;DHT22;14685;50.618;7.024;2024-03-08T02:36:01;7.20;99.90
27164;DHT22;14685;50.618;7.024;2024-03-08T02:38:43;7.10;99.90
27164;DHT22;14685;50.618;7.024;2024-03-08T02:41:10;7.10;99.90
27164;DHT22;14685;50.618;7.024;2024-03-08T02:43:37;7.10;99.90
27164;DHT22;14685;50.618;7.024;2024-03-08T02:46:04;7.10;99.90
27164;DHT22;14685;50.618;7.024;2024-03-08T02:48:32;7.10;99.90
27164;DHT22;14685;50.618;7.024;2024-03-08T02:51:02;7.10;99.90
27164;DHT22;14685;50.618;7.024;2024-03-08T02:53:30;7.10;99.90
27164;DHT22;14685;50.618;7.024;2024-03-08T02:55:58;7.10;99.90
27164;DHT22;14685;50.618;7.024;2024-03-08T02:58:26;7.20;99.90
27164;DHT22;14685;50.618;7.024;2024-03-08T03:00:53;7.20;99.90
27164;DHT22;14685;50.618;7.024;2024-03-08T03:03:20;7.20;99.90
27164;DHT22;14685;50.618;7.024;2024-03-08T03:05:46;7.10;99.90
27164;DHT22;14685;50.618;7.024;2024-03-08T03:08:15;7.20;99.90
27164;DHT22;14685;50.618;7.024;2024-03-08T03:10:44;7.10;99.90
27164;DHT22;14685;50.618;7.024;2024-03-08T03:13:13;7.10;99.90
27164;DHT22;14685;50.618;7.024;2024-03-08T03:15:41;7.10;99.90
27164;DHT22;14685;50.618;7.024;2024-03-08T03:18:12;7.10;99.90
27164;DHT22;14685;50.618;7.024;2024-03-08T03:20:39;7.10;99.90
27164;DHT22;14685;50.618;7.024;2024-03-08T03:23:10;7.00;99.90
27164;DHT22;14685;50.618;7.024;2024-03-08T03:25:42;7.00;99.90
27164;DHT22;14685;50.618;7.024;2024-03-08T03:28:09;7.00;99.90
27164;DHT22;14685;50.618;7.024;2024-03-08T03:30:38;7.00;99.90
27164;DHT22;14685;50.618;7.024;2024-03-08T03:33:07;7.00;99.90
27164;DHT22;14685;50.618;7.024;2024-03-08T03:35:35;7.00;99.90
27164;DHT22;14685;50.618;7.024;2024-03-08T03:38:05;6.90;99.90
27164;DHT22;14685;50.618;7.024;2024-03-08T03:40:39;6.90;99.90
27164;DHT22;14685;50.618;7.024;2024-03-08T03:43:07;6.90;99.90
27164;DHT22;14685;50.618;7.024;2024-03-08T03:45:39;6.90;99.90
27164;DHT22;14685;50.618;7.024;2024-03-08T03:48:08;6.80;99.90
27164;DHT22;14685;50.618;7.024;2024-03-08T03:50:38;6.90;99.90
27164;DHT22;14685;50.618;7.024;2024-03-08T03:53:07;6.90;99.90
27164;DHT22;14685;50.618;7.024;2024-03-08T03:55:35;6.60;99.90
27164;DHT22;14685;50.618;7.024;2024-03-08T03:58:03;6.90;99.90
27164;DHT22;14685;50.618;7.024;2024-03-08T04:00:32;6.90;99.90
27164;DHT22;14685;50.618;7.024;2024-03-08T04:02:59;6.90;99.90
27164;DHT22;14685;50.618;7.024;2024-03-08T04:05:29;6.90;99.90
27164;DHT22;14685;50.618;7.024;2024-03-08T04:07:56;6.80;99.90
27164;DHT22;14685;50.618;7.024;2024-03-08T04:10:23;6.80;99.90
27164;DHT22;14685;50.618;7.024;2024-03-08T04:12:53;6.80;99.90
27164;DHT22;14685;50.618;7.024;2024-03-08T04:15:20;6.90;99.90
27164;DHT22;14685;50.618;7.024;2024-03-08T04:17:47;6.80;99.90
27164;DHT22;14685;50.618;7.024;2024-03-08T04:20:15;6.80;99.90
27164;DHT22;14685;50.618;7.024;2024-03-08T04:22:42;6.80;99.90
27164;DHT22;14685;50.618;7.024;2024-03-08T04:25:15;6.80;99.90
27164;DHT22;14685;50.618;7.024;2024-03-08T04:27:42;6.80;99.90
27164;DHT22;14685;50.618;7.024;2024-03-08T04:30:09;6.80;99.90
27164;DHT22;14685;50.618;7.024;2024-03-08T04:32:36;6.80;99.90
27164;DHT22;14685;50.618;7.024;2024-03-08T04:35:05;6.80;99.90
27164;DHT22;14685;50.618;7.024;2024-03-08T04:37:36;6.60;99.90
27164;DHT22;14685;50.618;7.024;2024-03-08T04:40:04;6.70;99.90
27164;DHT22;14685;50.618;7.024;2024-03-08T04:42:31;6.70;99.90
27164;DHT22;14685;50.618;7.024;2024-03-08T04:45:00;6.70;99.90
27164;DHT22;14685;50.618;7.024;2024-03-08T04:47:27;6.70;99.90
27164;DHT22;14685;50.618;7.024;2024-03-08T04:49:55;6.70;99.90
27164;DHT22;14685;50.618;7.024;2024-03-08T04:52:23;6.60;99.90
27164;DHT22;14685;50.618;7.024;2024-03-08T04:54:50;6.60;99.90
27164;DHT22;14685;50.618;7.024;2024-03-08T04:57:18;6.70;99.90
27164;DHT22;14685;50.618;7.024;2024-03-08T04:59:47;6.60;99.90
27164;DHT22;14685;50.618;7.024;2024-03-08T05:02:16;6.60;99.90
27164;DHT22;14685;50.618;7.024;2024-03-08T05:04:44;6.60;99.90
27164;DHT22;14685;50.618;7.024;2024-03-08T05:07:13;6.60;99.90
27164;DHT22;14685;50.618;7.024;2024-03-08T05:09:40;6.60;99.90
27164;DHT22;14685;50.618;7.024;2024-03-08T05:12:08;6.50;99.90
27164;DHT22;14685;50.618;7.024;2024-03-08T05:14:35;6.50;99.90
27164;DHT22;14685;50.618;7.024;2024-03-08T05:17:03;6.40;99.90
27164;DHT22;14685;50.618;7.024;2024-03-08T05:19:34;6.40;99.90
27164;DHT22;14685;50.618;7.024;2024-03-08T05:22:01;6.30;99.90
27164;DHT22;14685;50.618;7.024;2024-03-08T05:24:28;6.30;99.90
27164;DHT22;14685;50.618;7.024;2024-03-08T05:26:57;6.30;99.90
27164;DHT22;14685;50.618;7.024;2024-03-08T05:29:26;6.30;99.90
27164;DHT22;14685;50.618;7.024;2024-03-08T05:31:53;6.30;99.90
27164;DHT22;14685;50.618;7.024;2024-03-08T05:34:25;6.30;99.90
27164;DHT22;14685;50.618;7.024;2024-03-08T05:36:53;6.30;99.90
27164;DHT22;14685;50.618;7.024;2024-03-08T05:39:21;6.20;99.90
27164;DHT22;14685;50.618;7.024;2024-03-08T05:41:49;6.20;99.90
27164;DHT22;14685;50.618;7.024;2024-03-08T05:44:19;6.20;99.90
27164;DHT22;14685;50.618;7.024;2024-03-08T05:46:54;6.20;99.90
27164;DHT22;14685;50.618;7.024;2024-03-08T05:49:22;6.20;99.90
27164;DHT22;14685;50.618;7.024;2024-03-08T05:51:51;6.20;99.90
27164;DHT22;14685;50.618;7.024;2024-03-08T05:54:20;6.20;99.90
27164;DHT22;14685;50.618;7.024;2024-03-08T05:56:49;6.20;99.90
27164;DHT22;14685;50.618;7.024;2024-03-08T05:59:20;6.10;99.90
27164;DHT22;14685;50.618;7.024;2024-03-08T06:01:48;6.20;99.90
27164;DHT22;14685;50.618;7.024;2024-03-08T06:04:16;6.20;99.90
27164;DHT22;14685;50.618;7.024;2024-03-08T06:06:44;6.10;99.90
27164;DHT22;14685;50.618;7.024;2024-03-08T06:09:18;6.10;99.90
27164;DHT22;14685;50.618;7.024;2024-03-08T06:11:52;6.00;99.90
27164;DHT22;14685;50.618;7.024;2024-03-08T06:14:21;6.00;99.90
27164;DHT22;14685;50.618;7.024;2024-03-08T06:16:48;6.00;99.90
27164;DHT22;14685;50.618;7.024;2024-03-08T06:19:18;6.00;99.90
27164;DHT22;14685;50.618;7.024;2024-03-08T06:21:46;5.90;99.90
27164;DHT22;14685;50.618;7.024;2024-03-08T06:24:13;5.90;99.90
27164;DHT22;14685;50.618;7.024;2024-03-08T06:26:42;5.90;99.90
27164;DHT22;14685;50.618;7.024;2024-03-08T06:29:10;6.00;99.90
27164;DHT22;14685;50.618;7.024;2024-03-08T06:31:37;6.00;99.90
27164;DHT22;14685;50.618;7.024;2024-03-08T06:34:06;6.00;99.90
27164;DHT22;14685;50.618;7.024;2024-03-08T06:36:35;5.90;99.90
27164;DHT22;14685;50.618;7.024;2024-03-08T06:39:05;5.90;99.90
27164;DHT22;14685;50.618;7.024;2024-03-08T06:41:38;5.90;99.90
27164;DHT22;14685;50.618;7.024;2024-03-08T06:44:07;5.90;99.90
27164;DHT22;14685;50.618;7.024;2024-03-08T06:46:36;5.90;99.90
27164;DHT22;14685;50.618;7.024;2024-03-08T06:49:05;5.90;99.90
27164;DHT22;14685;50.618;7.024;2024-03-08T06:51:33;5.90;99.90
27164;DHT22;14685;50.618;7.024;2024-03-08T06:54:02;5.90;99.90
27164;DHT22;14685;50.618;7.024;2024-03-08T06:56:35;5.90;99.90
27164;DHT22;14685;50.618;7.024;2024-03-08T06:59:03;5.90;99.90
27164;DHT22;14685;50.618;7.024;2024-03-08T07:01:30;6.00;99.90
27164;DHT22;14685;50.618;7.024;2024-03-08T07:04:03;6.00;99.90
27164;DHT22;14685;50.618;7.024;2024-03-08T07:06:32;6.10;99.90
27164;DHT22;14685;50.618;7.024;2024-03-08T07:09:03;6.10;99.90
27164;DHT22;14685;50.618;7.024;2024-03-08T07:11:32;6.10;99.90
27164;DHT22;14685;50.618;7.024;2024-03-08T07:14:01;6.10;99.90
27164;DHT22;14685;50.618;7.024;2024-03-08T07:16:32;6.20;99.90
27164;DHT22;14685;50.618;7.024;2024-03-08T07:19:01;6.20;99.90
27164;DHT22;14685;50.618;7.024;2024-03-08T07:21:28;6.20;99.90
27164;DHT22;14685;50.618;7.024;2024-03-08T07:23:55;6.20;99.90
27164;DHT22;14685;50.618;7.024;2024-03-08T07:26:28;6.30;99.90
27164;DHT22;14685;50.618;7.024;2024-03-08T07:28:57;6.40;99.90
27164;DHT22;14685;50.618;7.024;2024-03-08T07:31:26;6.60;99.90
27164;DHT22;14685;50.618;7.024;2024-03-08T07:34:05;6.70;99.90
27164;DHT22;14685;50.618;7.024;2024-03-08T07:36:34;6.80;99.90
27164;DHT22;14685;50.618;7.024;2024-03-08T07:39:01;6.90;99.90
27164;DHT22;14685;50.618;7.024;2024-03-08T07:41:30;7.00;99.90
27164;DHT22;14685;50.618;7.024;2024-03-08T07:43:57;7.20;99.90
27164;DHT22;14685;50.618;7.024;2024-03-08T07:46:26;7.30;99.90
27164;DHT22;14685;50.618;7.024;2024-03-08T07:48:57;7.50;99.90
27164;DHT22;14685;50.618;7.024;2024-03-08T07:51:24;7.70;99.90
27164;DHT22;14685;50.618;7.024;2024-03-08T07:53:51;7.90;99.90
27164;DHT22;14685;50.618;7.024;2024-03-08T07:56:19;8.10;99.90
27164;DHT22;14685;50.618;7.024;2024-03-08T07:58:48;8.10;99.90
27164;DHT22;14685;50.618;7.024;2024-03-08T08:01:19;8.30;99.90
27164;DHT22;14685;50.618;7.024;2024-03-08T08:03:46;8.30;99.90
27164;DHT22;14685;50.618;7.024;2024-03-08T08:06:15;8.40;99.90
27164;DHT22;14685;50.618;7.024;2024-03-08T08:08:43;8.30;99.90
27164;DHT22;14685;50.618;7.024;2024-03-08T08:11:10;8.40;99.90
27164;DHT22;14685;50.618;7.024;2024-03-08T08:13:43;8.50;99.90
27164;DHT22;14685;50.618;7.024;2024-03-08T08:16:10;8.40;99.90
27164;DHT22;14685;50.618;7.024;2024-03-08T08:18:40;8.60;99.90
27164;DHT22;14685;50.618;7.024;2024-03-08T08:21:07;8.80;99.90
27164;DHT22;14685;50.618;7.024;2024-03-08T08:23:34;8.90;99.90
27164;DHT22;14685;50.618;7.024;2024-03-08T08:26:01;9.00;99.90
27164;DHT22;14685;50.618;7.024;2024-03-08T08:28:31;8.90;99.90
27164;DHT22;14685;50.618;7.024;2024-03-08T08:30:58;8.90;99.90
27164;DHT22;14685;50.618;7.024;2024-03-08T08:33:26;9.10;99.90
27164;DHT22;14685;50.618;7.024;2024-03-08T08:35:53;9.10;99.90
27164;DHT22;14685;50.618;7.024;2024-03-08T08:38:20;9.20;99.90
27164;DHT22;14685;50.618;7.024;2024-03-08T08:40:48;9.20;99.90
27164;DHT22;14685;50.618;7.024;2024-03-08T08:43:16;9.20;99.90
27164;DHT22;14685;50.618;7.024;2024-03-08T08:45:45;9.30;99.90
27164;DHT22;14685;50.618;7.024;2024-03-08T08:48:14;9.20;99.90
27164;DHT22;14685;50.618;7.024;2024-03-08T08:50:41;9.40;99.90
27164;DHT22;14685;50.618;7.024;2024-03-08T08:53:09;9.60;99.90
27164;DHT22;14685;50.618;7.024;2024-03-08T08:55:40;9.70;99.90
27164;DHT22;14685;50.618;7.024;2024-03-08T08:58:07;9.70;99.90
27164;DHT22;14685;50.618;7.024;2024-03-08T09:00:34;9.70;99.90
27164;DHT22;14685;50.618;7.024;2024-03-08T09:03:01;9.60;99.90
27164;DHT22;14685;50.618;7.024;2024-03-08T09:05:31;9.70;99.90
27164;DHT22;14685;50.618;7.024;2024-03-08T09:08:02;9.80;99.90
27164;DHT22;14685;50.618;7.024;2024-03-08T09:10:31;9.80;99.90
27164;DHT22;14685;50.618;7.024;2024-03-08T09:13:00;9.80;99.90
27164;DHT22;14685;50.618;7.024;2024-03-08T09:15:29;9.90;99.90
27164;DHT22;14685;50.618;7.024;2024-03-08T09:17:56;9.80;99.90
27164;DHT22;14685;50.618;7.024;2024-03-08T09:20:23;9.80;99.90
27164;DHT22;14685;50.618;7.024;2024-03-08T09:22:51;9.80;99.90
27164;DHT22;14685;50.618;7.024;2024-03-08T09:25:18;9.80;99.90
27164;DHT22;14685;50.618;7.024;2024-03-08T09:27:46;9.90;99.90
27164;DHT22;14685;50.618;7.024;2024-03-08T09:30:16;9.90;99.90
27164;DHT22;14685;50.618;7.024;2024-03-08T09:32:43;9.80;99.90
27164;DHT22;14685;50.618;7.024;2024-03-08T09:35:10;9.80;99.90
27164;DHT22;14685;50.618;7.024;2024-03-08T09:37:37;9.80;99.90
27164;DHT22;14685;50.618;7.024;2024-03-08T09:40:05;9.90;99.90
27164;DHT22;14685;50.618;7.024;2024-03-08T09:42:37;9.90;99.90
27164;DHT22;14685;50.618;7.024;2024-03-08T09:45:09;9.90;99.90
27164;DHT22;14685;50.618;7.024;2024-03-08T09:47:41;10.00;99.90
27164;DHT22;14685;50.618;7.024;2024-03-08T09:50:09;10.10;99.90
27164;DHT22;14685;50.618;7.024;2024-03-08T09:52:37;10.20;99.90
27164;DHT22;14685;50.618;7.024;2024-03-08T09:55:05;10.20;99.90
27164;DHT22;14685;50.618;7.024;2024-03-08T09:57:37;10.20;99.90
27164;DHT22;14685;50.618;7.024;2024-03-08T10:00:07;10.30;99.90
27164;DHT22;14685;50.618;7.024;2024-03-08T10:02:51;10.40;99.90
27164;DHT22;14685;50.618;7.024;2024-03-08T10:05:20;10.40;99.90
27164;DHT22;14685;50.618;7.024;2024-03-08T10:07:49;10.50;99.90
27164;DHT22;14685;50.618;7.024;2024-03-08T10:10:17;10.40;99.90
27164;DHT22;14685;50.618;7.024;2024-03-08T10:12:44;10.40;99.90
27164;DHT22;14685;50.618;7.024;2024-03-08T10:15:12;10.50;99.90
27164;DHT22;14685;50.618;7.024;2024-03-08T10:17:40;10.40;99.90
27164;DHT22;14685;50.618;7.024;2024-03-08T10:20:14;10.40;99.90
27164;DHT22;14685;50.618;7.024;2024-03-08T10:22:43;10.30;99.90
27164;DHT22;14685;50.618;7.024;2024-03-08T10:25:32;10.40;99.90
27164;DHT22;14685;50.618;7.024;2024-03-08T10:28:03;10.40;99.90
27164;DHT22;14685;50.618;7.024;2024-03-08T10:30:31;10.40;99.90
27164;DHT22;14685;50.618;7.024;2024-03-08T10:32:59;10.60;99.90
27164;DHT22;14685;50.618;7.024;2024-03-08T10:35:26;10.40;99.90
27164;DHT22;14685;50.618;7.024;2024-03-08T10:37:56;10.50;99.90
27164;DHT22;14685;50.618;7.024;2024-03-08T10:40:28;10.40;99.90
27164;DHT22;14685;50.618;7.024;2024-03-08T10:42:56;10.40;99.90
27164;DHT22;14685;50.618;7.024;2024-03-08T10:45:37;10.30;99.90
27164;DHT22;14685;50.618;7.024;2024-03-08T10:50:36;10.20;99.90
27164;DHT22;14685;50.618;7.024;2024-03-08T10:53:06;10.00;99.90
27164;DHT22;14685;50.618;7.024;2024-03-08T10:55:34;10.10;99.90
27164;DHT22;14685;50.618;7.024;2024-03-08T10:58:03;10.10;99.90
27164;DHT22;14685;50.618;7.024;2024-03-08T11:00:30;10.20;99.90
27164;DHT22;14685;50.618;7.024;2024-03-08T11:02:58;10.20;99.90
27164;DHT22;14685;50.618;7.024;2024-03-08T11:05:41;10.30;99.90
27164;DHT22;14685;50.618;7.024;2024-03-08T11:08:18;10.20;99.90
27164;DHT22;14685;50.618;7.024;2024-03-08T11:10:51;10.30;99.90
27164;DHT22;14685;50.618;7.024;2024-03-08T11:16:09;10.40;99.90
27164;DHT22;14685;50.618;7.024;2024-03-08T11:18:37;10.40;99.90
27164;DHT22;14685;50.618;7.024;2024-03-08T11:21:07;10.40;99.90
27164;DHT22;14685;50.618;7.024;2024-03-08T11:23:39;10.30;99.90
27164;DHT22;14685;50.618;7.024;2024-03-08T11:26:24;10.30;99.90
27164;DHT22;14685;50.618;7.024;2024-03-08T11:28:51;10.40;99.90
27164;DHT22;14685;50.618;7.024;2024-03-08T11:31:25;10.40;99.90
27164;DHT22;14685;50.618;7.024;2024-03-08T11:33:53;10.40;99.90
27164;DHT22;14685;50.618;7.024;2024-03-08T11:36:25;10.60;99.90
27164;DHT22;14685;50.618;7.024;2024-03-08T11:38:53;10.60;99.90
27164;DHT22;14685;50.618;7.024;2024-03-08T11:41:24;10.60;99.90
27164;DHT22;14685;50.618;7.024;2024-03-08T11:44:05;10.60;99.90
27164;DHT22;14685;50.618;7.024;2024-03-08T11:46:33;10.60;99.90
27164;DHT22;14685;50.618;7.024;2024-03-08T11:49:00;10.70;99.90
27164;DHT22;14685;50.618;7.024;2024-03-08T11:51:27;10.70;99.90
27164;DHT22;14685;50.618;7.024;2024-03-08T11:53:54;10.80;99.90
27164;DHT22;14685;50.618;7.024;2024-03-08T11:56:22;10.80;99.90
27164;DHT22;14685;50.618;7.024;2024-03-08T11:58:54;10.70;99.90
27164;DHT22;14685;50.618;7.024;2024-03-08T12:01:24;10.70;99.90
27164;DHT22;14685;50.618;7.024;2024-03-08T12:03:56;10.80;99.90
27164;DHT22;14685;50.618;7.024;2024-03-08T12:06:26;10.80;99.90
27164;DHT22;14685;50.618;7.024;2024-03-08T12:08:53;10.80;99.90
27164;DHT22;14685;50.618;7.024;2024-03-08T12:11:21;10.90;99.90
27164;DHT22;14685;50.618;7.024;2024-03-08T12:13:52;10.90;99.90
27164;DHT22;14685;50.618;7.024;2024-03-08T12:16:20;10.90;99.90
27164;DHT22;14685;50.618;7.024;2024-03-08T12:18:51;11.00;99.90
27164;DHT22;14685;50.618;7.024;2024-03-08T12:21:21;11.00;99.90
27164;DHT22;14685;50.618;7.024;2024-03-08T12:24:05;11.00;99.90
27164;DHT22;14685;50.618;7.024;2024-03-08T12:26:39;11.00;99.90
27164;DHT22;14685;50.618;7.024;2024-03-08T12:29:25;11.00;99.90
27164;DHT22;14685;50.618;7.024;2024-03-08T12:31:55;11.00;99.90
27164;DHT22;14685;50.618;7.024;2024-03-08T12:34:23;11.10;99.90
27164;DHT22;14685;50.618;7.024;2024-03-08T12:36:52;11.10;99.90
27164;DHT22;14685;50.618;7.024;2024-03-08T12:39:22;11.10;99.90
27164;DHT22;14685;50.618;7.024;2024-03-08T12:41:49;11.10;99.90
27164;DHT22;14685;50.618;7.024;2024-03-08T12:44:19;11.10;99.90
27164;DHT22;14685;50.618;7.024;2024-03-08T12:46:48;11.10;99.90
27164;DHT22;14685;50.618;7.024;2024-03-08T12:49:20;11.20;99.90
27164;DHT22;14685;50.618;7.024;2024-03-08T12:51:49;11.20;99.90
27164;DHT22;14685;50.618;7.024;2024-03-08T12:54:17;11.30;99.90
27164;DHT22;14685;50.618;7.024;2024-03-08T12:56:44;11.20;99.90
27164;DHT22;14685;50.618;7.024;2024-03-08T12:59:11;11.30;99.90
27164;DHT22;14685;50.618;7.024;2024-03-08T13:01:40;11.30;99.90
27164;DHT22;14685;50.618;7.024;2024-03-08T13:04:09;11.30;99.90
27164;DHT22;14685;50.618;7.024;2024-03-08T13:06:38;11.30;99.90
27164;DHT22;14685;50.618;7.024;2024-03-08T13:09:06;11.40;99.90
27164;DHT22;14685;50.618;7.024;2024-03-08T13:11:33;11.40;99.90
27164;DHT22;14685;50.618;7.024;2024-03-08T13:14:05;11.40;99.90
27164;DHT22;14685;50.618;7.024;2024-03-08T13:16:32;11.50;99.90
27164;DHT22;14685;50.618;7.024;2024-03-08T13:19:02;11.50;99.90
27164;DHT22;14685;50.618;7.024;2024-03-08T13:21:30;11.50;99.90
27164;DHT22;14685;50.618;7.024;2024-03-08T13:23:59;11.60;99.90
27164;DHT22;14685;50.618;7.024;2024-03-08T13:26:29;11.60;99.90
27164;DHT22;14685;50.618;7.024;2024-03-08T13:29:00;11.60;99.90
27164;DHT22;14685;50.618;7.024;2024-03-08T13:31:27;11.60;99.90
27164;DHT22;14685;50.618;7.024;2024-03-08T13:33:55;11.60;99.90
27164;DHT22;14685;50.618;7.024;2024-03-08T13:36:25;11.50;99.90
27164;DHT22;14685;50.618;7.024;2024-03-08T13:38:56;11.50;99.90
27164;DHT22;14685;50.618;7.024;2024-03-08T13:41:26;11.60;99.90
27164;DHT22;14685;50.618;7.024;2024-03-08T13:43:57;11.60;99.90
27164;DHT22;14685;50.618;7.024;2024-03-08T13:46:24;11.50;99.90
27164;DHT22;14685;50.618;7.024;2024-03-08T13:48:52;11.50;99.90
27164;DHT22;14685;50.618;7.024;2024-03-08T13:51:21;11.60;99.90
27164;DHT22;14685;50.618;7.024;2024-03-08T13:53:50;11.60;99.90
27164;DHT22;14685;50.618;7.024;2024-03-08T13:56:18;11.60;99.90
27164;DHT22;14685;50.618;7.024;2024-03-08T13:58:46;11.70;99.90
27164;DHT22;14685;50.618;7.024;2024-03-08T14:01:16;11.70;99.90
27164;DHT22;14685;50.618;7.024;2024-03-08T14:03:43;11.80;99.90
27164;DHT22;14685;50.618;7.024;2024-03-08T14:06:14;11.90;99.90
27164;DHT22;14685;50.618;7.024;2024-03-08T14:08:47;11.90;99.90
27164;DHT22;14685;50.618;7.024;2024-03-08T14:11:15;11.90;99.90
27164;DHT22;14685;50.618;7.024;2024-03-08T14:13:46;11.90;99.90
27164;DHT22;14685;50.618;7.024;2024-03-08T14:16:14;11.90;99.90
27164;DHT22;14685;50.618;7.024;2024-03-08T14:18:43;11.90;99.90
27164;DHT22;14685;50.618;7.024;2024-03-08T14:21:11;11.80;99.90
27164;DHT22;14685;50.618;7.024;2024-03-08T14:23:41;11.80;99.90
27164;DHT22;14685;50.618;7.024;2024-03-08T14:26:10;11.90;99.90
27164;DHT22;14685;50.618;7.024;2024-03-08T14:28:40;11.80;99.90
27164;DHT22;14685;50.618;7.024;2024-03-08T14:31:07;11.80;99.90
27164;DHT22;14685;50.618;7.024;2024-03-08T14:33:38;11.80;99.90
27164;DHT22;14685;50.618;7.024;2024-03-08T14:36:09;11.80;99.90
27164;DHT22;14685;50.618;7.024;2024-03-08T14:38:37;11.80;99.90
27164;DHT22;14685;50.618;7.024;2024-03-08T14:41:05;11.90;99.90
27164;DHT22;14685;50.618;7.024;2024-03-08T14:43:34;11.90;99.90
27164;DHT22;14685;50.618;7.024;2024-03-08T14:46:01;11.90;99.90
27164;DHT22;14685;50.618;7.024;2024-03-08T14:48:29;11.90;99.90
27164;DHT22;14685;50.618;7.024;2024-03-08T14:50:56;11.90;99.90
27164;DHT22;14685;50.618;7.024;2024-03-08T14:53:25;11.70;99.90
27164;DHT22;14685;50.618;7.024;2024-03-08T14:55:52;11.80;99.90
27164;DHT22;14685;50.618;7.024;2024-03-08T14:58:19;11.80;99.90
27164;DHT22;14685;50.618;7.024;2024-03-08T15:00:48;11.70;99.90
27164;DHT22;14685;50.618;7.024;2024-03-08T15:03:21;11.80;99.90
27164;DHT22;14685;50.618;7.024;2024-03-08T15:05:53;11.80;99.90
27164;DHT22;14685;50.618;7.024;2024-03-08T15:08:21;11.80;99.90
27164;DHT22;14685;50.618;7.024;2024-03-08T15:10:51;11.80;99.90
27164;DHT22;14685;50.618;7.024;2024-03-08T15:13:21;11.80;99.90
27164;DHT22;14685;50.618;7.024;2024-03-08T15:15:56;11.80;99.90
27164;DHT22;14685;50.618;7.024;2024-03-08T15:18:24;11.90;99.90
27164;DHT22;14685;50.618;7.024;2024-03-08T15:21:15;11.80;99.90
27164;DHT22;14685;50.618;7.024;2024-03-08T15:23:47;11.90;99.90
27164;DHT22;14685;50.618;7.024;2024-03-08T15:26:20;11.80;99.90
27164;DHT22;14685;50.618;7.024;2024-03-08T15:28:47;11.90;99.90
27164;DHT22;14685;50.618;7.024;2024-03-08T15:31:19;11.90;99.90
27164;DHT22;14685;50.618;7.024;2024-03-08T15:33:48;11.90;99.90
27164;DHT22;14685;50.618;7.024;2024-03-08T15:36:18;11.80;99.90
27164;DHT22;14685;50.618;7.024;2024-03-08T15:38:48;11.90;99.90
27164;DHT22;14685;50.618;7.024;2024-03-08T15:41:19;11.90;99.90
27164;DHT22;14685;50.618;7.024;2024-03-08T15:43:48;11.80;99.90
27164;DHT22;14685;50.618;7.024;2024-03-08T15:46:15;11.80;99.90
27164;DHT22;14685;50.618;7.024;2024-03-08T15:48:42;11.90;99.90
27164;DHT22;14685;50.618;7.024;2024-03-08T15:51:12;11.90;99.90
27164;DHT22;14685;50.618;7.024;2024-03-08T15:53:41;11.90;99.90
27164;DHT22;14685;50.618;7.024;2024-03-08T15:56:08;11.80;99.90